Time;durP1;ratioP1;P1;durP2;ratioP2;P2;SDS_P1;SDS_P2;PMS_P1;PMS_P2;Temp;Humidity;BMP_temperature;BMP_pressure;BME280_temperature;BME280_humidity;BME280_pressure;Samples;Min_cycle;Max_cycle;Signal;HPM_P1;HPM_P2
2023/05/08 00:00:27;;;;;;;9.88;7.88;;;;;;;8.64;100.00;101361.09;6260511;28;20033;-87
2023/05/08 00:03:29;;;;;;;11.25;8.48;;;;;;;8.61;100.00;101364.69;6257889;28;20083;-87
2023/05/08 00:06:30;;;;;;;10.18;7.60;;;;;;;8.62;100.00;101353.47;6254202;28;20041;-87
2023/05/08 00:09:32;;;;;;;8.80;7.05;;;;;;;8.59;100.00;101358.78;6253824;28;20309;-87
2023/05/08 00:12:35;;;;;;;8.82;7.30;;;;;;;8.52;100.00;101361.81;6261060;28;20741;-88
2023/05/08 00:15:37;;;;;;;10.23;7.00;;;;;;;8.52;100.00;101362.66;6255954;28;20071;-88
2023/05/08 00:18:39;;;;;;;8.63;7.55;;;;;;;8.50;100.00;101359.34;6256039;28;20037;-87
2023/05/08 00:21:41;;;;;;;9.38;7.25;;;;;;;8.44;100.00;101359.66;6260418;28;20148;-88
2023/05/08 00:24:43;;;;;;;10.43;7.97;;;;;;;8.45;100.00;101357.91;6257614;28;20151;-88
2023/05/08 00:27:45;;;;;;;8.55;6.93;;;;;;;8.46;100.00;101364.75;6257651;28;20750;-88
2023/05/08 00:30:47;;;;;;;8.95;7.47;;;;;;;8.34;100.00;101361.06;6257638;28;20048;-87
2023/05/08 00:33:48;;;;;;;10.55;7.50;;;;;;;8.31;100.00;101356.09;6257594;28;20032;-88
2023/05/08 00:36:50;;;;;;;10.38;7.60;;;;;;;8.31;100.00;101359.50;6258068;28;20341;-88
2023/05/08 00:39:52;;;;;;;10.90;7.78;;;;;;;8.30;100.00;101362.19;6249592;28;20037;-88
2023/05/08 00:42:53;;;;;;;11.98;7.82;;;;;;;8.30;100.00;101365.59;6244864;28;20076;-87
2023/05/08 00:45:57;;;;;;;10.23;7.43;;;;;;;8.27;100.00;101365.72;6243583;28;20041;-87
2023/05/08 00:48:59;;;;;;;12.13;8.20;;;;;;;8.23;100.00;101364.25;6248179;28;20033;-87
2023/05/08 00:52:04;;;;;;;9.60;7.38;;;;;;;8.24;100.00;101359.91;6237121;28;20049;-88
2023/05/08 00:55:06;;;;;;;9.40;7.80;;;;;;;8.24;100.00;101354.75;6236764;28;20042;-88
2023/05/08 00:58:09;;;;;;;11.65;8.18;;;;;;;8.13;100.00;101357.94;6252053;28;20045;-88
2023/05/08 01:01:11;;;;;;;11.07;7.80;;;;;;;8.13;100.00;101353.63;6255856;28;20578;-88
2023/05/08 01:04:13;;;;;;;10.02;7.68;;;;;;;8.13;100.00;101355.38;6237059;28;20598;-88
2023/05/08 01:07:16;;;;;;;11.38;8.15;;;;;;;8.13;100.00;101355.38;6259482;28;20647;-88
2023/05/08 01:10:18;;;;;;;9.05;7.22;;;;;;;8.09;100.00;101343.56;6258097;28;20124;-87
2023/05/08 01:14:01;;;;;;;10.27;8.10;;;;;;;8.09;100.00;101348.72;6256204;28;20507;-88
2023/05/08 01:17:40;;;;;;;10.50;7.75;;;;;;;8.03;100.00;101347.31;6258121;28;20061;-88
2023/05/08 01:20:52;;;;;;;8.60;7.22;;;;;;;8.06;100.00;101354.88;6251309;28;20053;-88
2023/05/08 01:24:32;;;;;;;8.40;7.32;;;;;;;8.06;100.00;101348.88;6256434;28;20052;-87
2023/05/08 01:27:41;;;;;;;11.40;7.78;;;;;;;7.99;100.00;101341.47;6255940;28;20036;-88
2023/05/08 01:30:53;;;;;;;10.80;7.20;;;;;;;8.01;100.00;101338.81;6259902;28;20072;-87
2023/05/08 01:34:24;;;;;;;10.57;7.35;;;;;;;8.02;100.00;101343.06;6244560;28;20049;-87
2023/05/08 01:37:34;;;;;;;10.68;7.65;;;;;;;7.98;100.00;101344.16;6245056;28;20049;-87
2023/05/08 01:40:50;;;;;;;9.90;7.78;;;;;;;7.96;100.00;101335.66;6255286;28;20516;-87
2023/05/08 01:44:10;;;;;;;8.85;7.35;;;;;;;7.92;100.00;101332.41;6238440;28;20150;-87
2023/05/08 01:47:14;;;;;;;10.00;7.22;;;;;;;7.93;100.00;101341.00;6241864;28;20577;-87
2023/05/08 01:50:30;;;;;;;9.27;7.47;;;;;;;7.89;100.00;101345.47;6242330;28;20056;-87
2023/05/08 01:53:54;;;;;;;9.70;7.68;;;;;;;7.88;100.00;101348.97;6241523;28;20037;-87
2023/05/08 01:57:00;;;;;;;9.82;7.47;;;;;;;7.89;100.00;101348.06;6244968;28;20051;-87
2023/05/08 02:00:03;;;;;;;8.35;7.25;;;;;;;7.90;100.00;101349.72;6253727;28;20993;-87
2023/05/08 02:03:14;;;;;;;9.07;6.93;;;;;;;7.87;100.00;101337.00;6262306;28;20049;-87
2023/05/08 02:06:20;;;;;;;8.60;7.03;;;;;;;7.88;100.00;101343.81;6258281;28;20620;-87
2023/05/08 02:09:24;;;;;;;9.38;7.10;;;;;;;7.82;100.00;101336.41;6261819;28;20056;-87
2023/05/08 02:12:27;;;;;;;8.77;6.90;;;;;;;7.82;100.00;101349.28;6262414;28;20037;-87
2023/05/08 02:15:30;;;;;;;7.80;6.55;;;;;;;7.80;100.00;101348.56;6261240;28;20049;-87
2023/05/08 02:18:33;;;;;;;9.13;7.35;;;;;;;7.77;100.00;101348.72;6260458;28;20441;-87
2023/05/08 02:21:36;;;;;;;8.32;6.93;;;;;;;7.75;100.00;101345.38;6262636;28;20878;-87
2023/05/08 02:24:39;;;;;;;9.65;7.95;;;;;;;7.73;100.00;101339.50;6239359;28;20041;-88
2023/05/08 02:27:44;;;;;;;11.95;8.10;;;;;;;7.68;100.00;101342.31;6265458;28;20050;-87
2023/05/08 02:30:47;;;;;;;9.82;7.68;;;;;;;7.68;100.00;101341.50;6248270;28;20044;-87
2023/05/08 02:33:51;;;;;;;13.02;8.10;;;;;;;7.70;100.00;101342.22;6261297;28;20491;-87
2023/05/08 02:36:54;;;;;;;10.60;8.30;;;;;;;7.69;100.00;101341.41;6235264;28;20765;-87
2023/05/08 02:39:57;;;;;;;11.73;8.52;;;;;;;7.70;100.00;101337.94;6258192;28;20037;-87
2023/05/08 02:42:59;;;;;;;10.98;8.10;;;;;;;7.67;100.00;101338.06;6245761;28;20235;-87
2023/05/08 02:46:20;;;;;;;10.70;8.10;;;;;;;7.66;100.00;101346.72;6260897;28;20521;-87
2023/05/08 02:49:45;;;;;;;10.15;7.40;;;;;;;7.64;100.00;101343.41;6262222;28;20041;-87
2023/05/08 02:52:51;;;;;;;9.65;7.43;;;;;;;7.61;100.00;101341.00;6247984;28;20080;-87
2023/05/08 02:55:59;;;;;;;9.43;7.85;;;;;;;7.57;100.00;101341.22;6250557;28;20130;-87
2023/05/08 02:59:32;;;;;;;10.20;8.35;;;;;;;7.56;100.00;101335.25;6262972;28;20049;-87
2023/05/08 03:02:39;;;;;;;10.82;7.82;;;;;;;7.56;100.00;101332.69;6187452;28;20509;-87
2023/05/08 03:05:46;;;;;;;9.82;7.72;;;;;;;7.55;100.00;101334.44;6171449;28;20066;-87
2023/05/08 03:08:50;;;;;;;11.02;8.07;;;;;;;7.54;100.00;101326.78;6188059;28;20062;-87
2023/05/08 03:12:03;;;;;;;9.73;7.63;;;;;;;7.48;100.00;101322.78;6170186;28;20652;-87
2023/05/08 03:15:10;;;;;;;10.88;8.38;;;;;;;7.49;100.00;101327.00;6171198;28;20137;-87
2023/05/08 03:18:27;;;;;;;10.82;7.28;;;;;;;7.51;100.00;101330.34;6169575;28;20103;-87
2023/05/08 03:21:30;;;;;;;11.07;8.00;;;;;;;7.48;100.00;101327.09;6170084;28;20061;-87
2023/05/08 03:24:35;;;;;;;10.75;6.68;;;;;;;7.41;100.00;101330.91;6154184;28;20512;-87
2023/05/08 03:27:39;;;;;;;10.52;7.93;;;;;;;7.42;100.00;101322.25;6141618;28;20113;-87
2023/05/08 03:30:42;;;;;;;8.90;7.40;;;;;;;7.40;100.00;101317.19;6170863;28;20050;-87
2023/05/08 03:33:51;;;;;;;9.73;6.82;;;;;;;7.40;100.00;101324.09;6158046;28;20184;-87
2023/05/08 03:36:53;;;;;;;8.73;6.95;;;;;;;7.37;100.00;101321.69;6154826;28;20698;-87
2023/05/08 03:39:55;;;;;;;9.40;7.75;;;;;;;7.40;100.00;101321.50;6250419;28;20061;-87
2023/05/08 03:42:59;;;;;;;7.57;6.70;;;;;;;7.42;100.00;101314.53;6249608;28;20386;-87
2023/05/08 03:46:03;;;;;;;10.48;7.55;;;;;;;7.45;100.00;101319.53;6251460;28;20046;-87
2023/05/08 03:49:08;;;;;;;11.80;7.80;;;;;;;7.47;100.00;101320.28;6255650;28;20101;-87
2023/05/08 03:52:11;;;;;;;11.90;7.93;;;;;;;7.43;100.00;101311.88;6257751;28;20122;-87
2023/05/08 03:55:14;;;;;;;10.60;7.50;;;;;;;7.43;100.00;101306.75;6253149;28;20057;-87
2023/05/08 03:58:41;;;;;;;9.27;7.20;;;;;;;7.48;100.00;101314.22;6255001;28;20049;-87
2023/05/08 04:02:11;;;;;;;11.90;8.07;;;;;;;7.49;100.00;101324.44;6259772;28;20056;-87
2023/05/08 04:05:32;;;;;;;;;;;;;;;7.53;100.00;101323.38;6172369;28;20187;-87
2023/05/08 04:08:42;;;;;;;9.40;7.53;;;;;;;7.54;100.00;101327.59;6209713;28;19925;-87
2023/05/08 04:12:09;;;;;;;11.93;8.15;;;;;;;7.60;100.00;101328.19;6193174;28;20074;-87
2023/05/08 04:15:19;;;;;;;10.52;7.53;;;;;;;7.63;100.00;101328.84;6207334;28;20523;-87
2023/05/08 04:18:27;;;;;;;9.70;7.85;;;;;;;7.58;100.00;101328.28;6178884;28;20091;-87
2023/05/08 04:21:34;;;;;;;10.23;8.05;;;;;;;7.59;100.00;101326.53;6194495;28;20085;-87
2023/05/08 04:24:43;;;;;;;13.05;8.82;;;;;;;7.62;100.00;101328.94;6180668;28;20042;-87
2023/05/08 04:27:45;;;;;;;11.98;8.63;;;;;;;7.61;100.00;101333.25;6180934;28;20096;-87
2023/05/08 04:30:48;;;;;;;9.70;8.02;;;;;;;7.66;100.00;101333.00;6209879;28;20064;-87
2023/05/08 04:33:50;;;;;;;11.93;8.50;;;;;;;7.60;100.00;101338.47;6210604;28;20049;-87
2023/05/08 04:36:52;;;;;;;10.52;7.95;;;;;;;7.64;100.00;101347.72;6209833;28;20263;-87
2023/05/08 04:39:54;;;;;;;11.20;8.27;;;;;;;7.57;100.00;101346.38;6177928;28;20046;-87
2023/05/08 04:42:57;;;;;;;10.35;8.15;;;;;;;7.61;100.00;101353.88;6247204;28;20041;-87
2023/05/08 04:45:59;;;;;;;9.52;7.85;;;;;;;7.60;100.00;101347.03;6260231;28;20051;-87
2023/05/08 04:49:01;;;;;;;10.23;7.80;;;;;;;7.63;100.00;101349.47;6243822;28;20064;-87
2023/05/08 04:52:05;;;;;;;10.50;8.23;;;;;;;7.64;100.00;101348.53;6260934;28;20056;-87
2023/05/08 04:55:07;;;;;;;11.10;8.38;;;;;;;7.67;100.00;101339.81;6259054;28;20049;-87
2023/05/08 04:58:12;;;;;;;11.52;8.88;;;;;;;7.73;100.00;101344.66;6244301;28;20052;-87
2023/05/08 05:01:14;;;;;;;12.23;8.88;;;;;;;7.71;100.00;101349.06;6261584;28;20075;-87
2023/05/08 05:04:16;;;;;;;12.10;8.23;;;;;;;7.75;100.00;101355.69;6259671;28;20048;-87
2023/05/08 05:07:18;;;;;;;10.25;8.02;;;;;;;7.76;100.00;101359.94;6250396;28;20418;-87
2023/05/08 05:10:19;;;;;;;11.32;8.68;;;;;;;7.78;100.00;101355.56;6259788;28;20056;-87
2023/05/08 05:13:21;;;;;;;11.75;8.30;;;;;;;7.80;100.00;101348.56;6259144;28;20055;-87
2023/05/08 05:16:23;;;;;;;10.82;8.10;;;;;;;7.83;100.00;101350.16;6259223;28;20053;-87
2023/05/08 05:19:26;;;;;;;12.82;7.80;;;;;;;7.87;100.00;101349.88;6260350;28;20047;-87
2023/05/08 05:22:28;;;;;;;10.48;8.27;;;;;;;7.87;100.00;101349.88;6264199;28;20053;-87
2023/05/08 05:25:30;;;;;;;11.10;8.32;;;;;;;7.92;100.00;101344.47;6241701;28;20042;-87
2023/05/08 05:28:33;;;;;;;12.02;8.63;;;;;;;7.94;100.00;101358.13;6243678;28;20084;-87
2023/05/08 05:31:36;;;;;;;9.98;8.48;;;;;;;8.02;100.00;101358.53;6264038;28;20052;-87
2023/05/08 05:34:38;;;;;;;10.60;8.50;;;;;;;8.03;100.00;101359.38;6263424;28;20226;-87
2023/05/08 05:37:40;;;;;;;10.68;7.95;;;;;;;8.08;100.00;101360.78;6265842;28;20171;-87
2023/05/08 05:40:44;;;;;;;10.48;8.50;;;;;;;8.10;100.00;101350.34;6264913;28;20040;-87
2023/05/08 05:43:47;;;;;;;10.50;7.88;;;;;;;8.12;100.00;101359.72;6265374;28;20116;-87
2023/05/08 05:46:49;;;;;;;11.77;8.48;;;;;;;8.17;100.00;101364.59;6262871;28;20048;-87
2023/05/08 05:49:51;;;;;;;11.48;8.25;;;;;;;8.19;100.00;101371.31;6265672;28;20080;-87
2023/05/08 05:52:56;;;;;;;12.20;8.27;;;;;;;8.22;100.00;101374.66;6270918;28;20072;-87
2023/05/08 05:55:59;;;;;;;9.80;7.93;;;;;;;8.25;100.00;101377.06;6260650;28;20051;-87
2023/05/08 05:59:01;;;;;;;9.77;7.95;;;;;;;8.27;100.00;101368.31;6263916;28;20049;-87
2023/05/08 06:02:03;;;;;;;9.55;8.23;;;;;;;8.33;100.00;101362.00;6255855;28;20069;-87
2023/05/08 06:05:05;;;;;;;10.80;8.13;;;;;;;8.37;100.00;101366.03;6241994;28;20075;-87
2023/05/08 06:08:07;;;;;;;10.50;8.27;;;;;;;8.48;100.00;101375.81;6254097;28;20075;-87
2023/05/08 06:11:10;;;;;;;9.05;7.97;;;;;;;8.51;100.00;101384.19;6252804;28;20072;-87
2023/05/08 06:14:12;;;;;;;11.05;7.82;;;;;;;8.54;100.00;101384.03;6252887;28;20178;-87
2023/05/08 06:17:16;;;;;;;14.80;8.50;;;;;;;8.59;100.00;101376.84;6255080;28;20041;-87
2023/05/08 06:20:19;;;;;;;10.07;8.40;;;;;;;8.67;100.00;101379.03;6259479;28;20095;-87
2023/05/08 06:23:25;;;;;;;10.75;8.38;;;;;;;8.72;100.00;101386.47;6261188;28;20041;-87
2023/05/08 06:26:27;;;;;;;12.15;8.18;;;;;;;8.75;100.00;101384.56;6258152;28;20056;-87
2023/05/08 06:29:29;;;;;;;11.65;8.23;;;;;;;8.81;100.00;101385.94;6259140;28;20040;-87
2023/05/08 06:32:31;;;;;;;10.02;8.32;;;;;;;8.88;100.00;101387.25;6262803;28;20497;-87
2023/05/08 06:35:33;;;;;;;10.88;8.60;;;;;;;9.01;100.00;101379.63;6263150;28;20037;-87
2023/05/08 06:38:35;;;;;;;11.70;7.93;;;;;;;9.02;100.00;101387.28;6259372;28;20041;-87
2023/05/08 06:41:37;;;;;;;14.05;8.32;;;;;;;9.07;100.00;101387.03;6252187;28;20042;-87
2023/05/08 06:44:39;;;;;;;12.80;8.13;;;;;;;9.12;100.00;101399.66;6241053;28;20041;-87
2023/05/08 06:47:41;;;;;;;11.77;9.07;;;;;;;9.22;100.00;101395.63;6241515;28;20037;-87
2023/05/08 06:50:45;;;;;;;11.73;8.32;;;;;;;9.28;100.00;101393.50;6242693;28;20053;-87
2023/05/08 06:53:47;;;;;;;9.68;8.13;;;;;;;9.38;100.00;101400.69;6241962;28;20053;-87
2023/05/08 06:56:51;;;;;;;10.02;7.97;;;;;;;9.45;100.00;101399.41;6243076;28;20056;-87
2023/05/08 06:59:53;;;;;;;9.32;8.05;;;;;;;9.52;100.00;101398.13;6248060;28;20045;-87
2023/05/08 07:02:56;;;;;;;11.07;8.60;;;;;;;9.61;100.00;101394.97;6248393;28;20455;-87
2023/05/08 07:05:58;;;;;;;8.75;7.75;;;;;;;9.67;100.00;101398.94;6244229;28;20040;-87
2023/05/08 07:08:59;;;;;;;10.27;8.32;;;;;;;9.73;100.00;101395.97;6255098;28;20817;-87
2023/05/08 07:12:02;;;;;;;10.30;7.82;;;;;;;9.81;100.00;101398.09;6262366;28;20044;-87
2023/05/08 07:15:05;;;;;;;10.35;8.63;;;;;;;9.88;100.00;101392.44;6263618;28;20098;-87
2023/05/08 07:18:25;;;;;;;11.00;8.07;;;;;;;9.96;100.00;101394.53;6261927;28;20499;-87
2023/05/08 07:21:28;;;;;;;11.10;7.88;;;;;;;9.98;100.00;101386.69;6260518;28;20497;-87
2023/05/08 07:24:31;;;;;;;11.30;8.70;;;;;;;10.10;100.00;101388.50;6260920;28;20112;-87
2023/05/08 07:27:33;;;;;;;10.63;8.68;;;;;;;10.17;100.00;101396.72;6252896;28;20041;-87
2023/05/08 07:30:35;;;;;;;10.52;8.05;;;;;;;10.25;100.00;101395.31;6262738;28;20128;-87
2023/05/08 07:33:39;;;;;;;10.65;8.18;;;;;;;10.38;100.00;101390.19;6252214;28;20045;-89
2023/05/08 07:36:41;;;;;;;9.57;8.32;;;;;;;10.46;100.00;101395.72;6260774;28;20045;-89
2023/05/08 07:39:43;;;;;;;12.30;9.15;;;;;;;10.56;100.00;101389.03;6259144;28;20041;-89
2023/05/08 07:42:45;;;;;;;12.35;8.48;;;;;;;10.65;100.00;101387.59;6252323;28;20447;-89
2023/05/08 07:45:48;;;;;;;10.85;8.68;;;;;;;10.68;100.00;101392.59;6244473;28;20056;-89
2023/05/08 07:48:49;;;;;;;11.13;8.90;;;;;;;10.75;100.00;101396.41;6246728;28;20042;-90
2023/05/08 07:51:52;;;;;;;10.57;8.60;;;;;;;10.81;100.00;101396.94;6245988;28;20044;-89
2023/05/08 07:54:53;;;;;;;10.00;7.60;;;;;;;10.87;100.00;101399.13;6250792;28;20037;-89
2023/05/08 07:57:55;;;;;;;10.10;8.75;;;;;;;10.89;100.00;101403.28;6241117;28;20081;-89
2023/05/08 08:00:57;;;;;;;9.40;8.40;;;;;;;10.95;100.00;101402.03;6252740;28;20047;-89
2023/05/08 08:03:59;;;;;;;11.30;8.60;;;;;;;11.01;100.00;101406.81;6243512;28;20132;-89
2023/05/08 08:07:01;;;;;;;12.35;9.43;;;;;;;11.14;100.00;101396.47;6245474;28;20192;-90
2023/05/08 08:10:03;;;;;;;10.60;9.30;;;;;;;11.22;100.00;101404.53;6246766;28;20045;-89
2023/05/08 08:13:05;;;;;;;14.13;8.82;;;;;;;11.37;100.00;101400.91;6235387;28;20060;-89
2023/05/08 08:16:07;;;;;;;13.05;9.52;;;;;;;11.48;100.00;101401.94;6246711;28;20040;-89
2023/05/08 08:19:15;;;;;;;10.77;9.02;;;;;;;11.55;100.00;101398.84;6240787;28;20492;-89
2023/05/08 08:22:17;;;;;;;14.50;8.93;;;;;;;11.70;100.00;101399.53;6247802;28;20499;-89
2023/05/08 08:25:21;;;;;;;11.15;9.43;;;;;;;11.80;100.00;101397.94;6243686;28;20069;-89
2023/05/08 08:28:23;;;;;;;10.40;9.20;;;;;;;11.87;100.00;101400.13;6249834;28;20037;-89
2023/05/08 08:31:25;;;;;;;13.32;9.48;;;;;;;11.95;100.00;101406.44;6247511;28;20288;-89
2023/05/08 08:34:27;;;;;;;11.68;9.18;;;;;;;12.02;100.00;101393.84;6249824;28;20044;-90
2023/05/08 08:37:29;;;;;;;10.05;8.98;;;;;;;12.15;100.00;101393.81;6252012;28;20499;-90
2023/05/08 08:40:31;;;;;;;11.13;9.63;;;;;;;12.23;100.00;101394.09;6240619;28;20415;-89
2023/05/08 08:43:42;;;;;;;10.77;9.00;;;;;;;12.38;100.00;101394.75;6243649;28;20098;-90
2023/05/08 08:46:50;;;;;;;11.15;9.57;;;;;;;12.51;100.00;101390.31;6246944;28;20491;-89
2023/05/08 08:49:53;;;;;;;11.00;9.07;;;;;;;12.61;100.00;101390.47;6246556;28;20455;-89
2023/05/08 08:53:05;;;;;;;11.70;9.27;;;;;;;12.68;100.00;101387.31;6253529;28;20040;-89
2023/05/08 08:56:08;;;;;;;12.73;9.90;;;;;;;12.77;100.00;101385.81;6257820;28;20041;-89
2023/05/08 08:59:12;;;;;;;12.40;9.57;;;;;;;12.89;100.00;101379.69;6253162;28;20033;-89
2023/05/08 09:02:18;;;;;;;12.85;9.95;;;;;;;12.99;100.00;101381.59;6250113;28;20037;-89
2023/05/08 09:05:23;;;;;;;11.55;9.07;;;;;;;13.12;100.00;101370.16;6244468;28;20046;-89
2023/05/08 09:08:25;;;;;;;11.50;9.35;;;;;;;13.24;100.00;101371.00;6242774;28;20041;-89
2023/05/08 09:11:29;;;;;;;11.75;10.13;;;;;;;13.35;100.00;101368.41;6254929;28;20482;-88
2023/05/08 09:14:31;;;;;;;12.50;10.57;;;;;;;13.50;100.00;101371.59;6258863;28;20052;-89
2023/05/08 09:17:33;;;;;;;12.40;9.82;;;;;;;13.59;100.00;101372.69;6258255;28;20052;-89
2023/05/08 09:20:36;;;;;;;12.30;9.30;;;;;;;13.70;100.00;101364.84;6247033;28;20045;-89
2023/05/08 09:24:01;;;;;;;11.77;8.57;;;;;;;13.83;100.00;101361.25;6259467;28;20520;-89
2023/05/08 09:27:20;;;;;;;10.13;8.57;;;;;;;13.91;100.00;101362.31;6259381;28;20859;-89
2023/05/08 09:30:22;;;;;;;13.23;9.18;;;;;;;13.98;100.00;101368.66;6252087;28;20045;-89
2023/05/08 09:33:29;;;;;;;9.50;8.05;;;;;;;14.09;100.00;101361.81;6249871;28;20596;-89
2023/05/08 09:36:30;;;;;;;9.68;7.97;;;;;;;14.24;100.00;101372.75;6256105;28;20378;-89
2023/05/08 09:39:33;;;;;;;10.90;8.63;;;;;;;14.42;100.00;101363.44;6249011;28;20047;-89
2023/05/08 09:42:41;;;;;;;9.95;8.20;;;;;;;14.47;100.00;101363.88;6233900;28;20607;-88
2023/05/08 09:45:43;;;;;;;10.55;8.32;;;;;;;14.54;100.00;101361.66;6249812;28;20500;-89
2023/05/08 09:48:45;;;;;;;11.13;9.13;;;;;;;14.61;100.00;101362.78;6256270;28;20053;-89
2023/05/08 09:51:52;;;;;;;10.35;8.38;;;;;;;14.66;100.00;101360.63;6257653;28;20040;-89
2023/05/08 09:55:09;;;;;;;11.68;9.23;;;;;;;14.76;100.00;101353.69;6251534;28;20029;-89
2023/05/08 09:58:11;;;;;;;10.95;8.68;;;;;;;14.87;100.00;101350.19;6238805;28;20053;-89
2023/05/08 10:01:31;;;;;;;9.40;8.45;;;;;;;14.97;100.00;101347.63;6255074;28;20560;-89
2023/05/08 10:04:35;;;;;;;11.05;8.70;;;;;;;15.07;100.00;101345.91;6259231;28;20411;-89
2023/05/08 10:07:40;;;;;;;9.07;7.97;;;;;;;15.20;100.00;101349.09;6262825;28;20763;-89
2023/05/08 10:10:42;;;;;;;13.15;8.85;;;;;;;15.35;100.00;101351.34;6263044;28;20049;-89
2023/05/08 10:13:45;;;;;;;9.00;7.95;;;;;;;15.47;100.00;101350.31;6260182;28;20033;-90
2023/05/08 10:16:50;;;;;;;10.13;8.20;;;;;;;15.59;100.00;101356.25;6258036;28;20057;-89
2023/05/08 10:20:00;;;;;;;9.07;8.07;;;;;;;15.69;100.00;101347.50;6259269;28;20534;-89
2023/05/08 10:23:03;;;;;;;9.25;8.15;;;;;;;15.80;100.00;101348.34;6264681;28;20401;-89
2023/05/08 10:26:13;;;;;;;10.48;8.43;;;;;;;15.93;100.00;101346.31;6260513;28;20051;-89
2023/05/08 10:29:24;;;;;;;9.77;8.68;;;;;;;16.04;100.00;101340.94;6240996;28;21752;-89
2023/05/08 10:32:30;;;;;;;7.75;6.93;;;;;;;16.13;100.00;101341.94;6254430;28;20041;-90
2023/05/08 10:35:32;;;;;;;8.35;7.10;;;;;;;16.27;100.00;101340.66;6245010;28;20045;-89
2023/05/08 10:38:36;;;;;;;9.88;7.47;;;;;;;16.32;100.00;101331.47;6243428;28;20049;-90
2023/05/08 10:41:40;;;;;;;9.00;7.70;;;;;;;16.40;100.00;101338.63;6251538;28;20048;-90
2023/05/08 10:44:43;;;;;;;9.13;7.85;;;;;;;16.51;100.00;101340.25;6256061;28;20034;-90
2023/05/08 10:48:10;;;;;;;8.60;7.53;;;;;;;16.57;100.00;101335.28;6244432;28;20399;-90
2023/05/08 10:51:21;;;;;;;9.80;7.82;;;;;;;16.59;100.00;101329.91;6245135;28;20512;-90
2023/05/08 10:54:38;;;;;;;7.80;6.70;;;;;;;16.74;100.00;101328.53;6244462;28;20057;-91
2023/05/08 10:57:41;;;;;;;8.20;7.00;;;;;;;16.88;100.00;101321.22;6241323;28;20407;-90
2023/05/08 11:01:03;;;;;;;8.60;7.18;;;;;;;17.01;100.00;101332.16;6251497;28;20459;-91
2023/05/08 11:04:22;;;;;;;8.90;7.30;;;;;;;17.14;100.00;101329.22;6250323;28;20049;-91
2023/05/08 11:07:56;;;;;;;11.05;7.55;;;;;;;17.25;100.00;101318.59;6253349;28;20045;-91
2023/05/08 11:11:03;;;;;;;8.77;7.70;;;;;;;17.36;100.00;101326.22;6262841;28;20132;-91
2023/05/08 11:14:06;;;;;;;9.55;8.52;;;;;;;17.41;100.00;101317.94;6253491;28;20045;-91
2023/05/08 11:17:09;;;;;;;10.45;7.68;;;;;;;17.40;100.00;101324.16;6251685;28;20045;-91
2023/05/08 11:20:11;;;;;;;10.68;7.70;;;;;;;17.46;100.00;101318.31;6249392;28;20144;-91
2023/05/08 11:23:21;;;;;;;12.18;8.65;;;;;;;17.60;100.00;101311.78;6252579;28;20231;-90
2023/05/08 11:26:41;;;;;;;11.57;8.93;;;;;;;17.63;100.00;101317.53;6261972;28;20156;-91
2023/05/08 11:29:43;;;;;;;11.65;8.55;;;;;;;17.72;100.00;101309.78;6253587;28;20060;-91
2023/05/08 11:33:12;;;;;;;11.00;8.90;;;;;;;17.91;100.00;101307.00;6253068;28;20499;-91
2023/05/08 11:36:21;;;;;;;11.38;8.93;;;;;;;18.04;100.00;101311.91;6242860;28;20496;-91
2023/05/08 11:39:25;;;;;;;10.00;8.75;;;;;;;18.18;100.00;101297.41;6261391;28;20083;-90
2023/05/08 11:42:27;;;;;;;10.73;8.10;;;;;;;18.32;100.00;101304.75;6246766;28;20447;-91
2023/05/08 11:45:31;;;;;;;12.18;9.68;;;;;;;18.47;100.00;101302.41;6244295;28;20045;-90
2023/05/08 11:48:34;;;;;;;9.07;8.18;;;;;;;18.56;100.00;101298.00;6244685;28;20351;-90
2023/05/08 11:51:37;;;;;;;11.13;8.40;;;;;;;18.66;100.00;101302.19;6251484;28;20041;-90
2023/05/08 11:54:39;;;;;;;9.70;8.32;;;;;;;18.79;100.00;101307.03;6252194;28;20048;-90
2023/05/08 11:57:41;;;;;;;10.25;8.75;;;;;;;18.89;100.00;101310.38;6260908;28;20046;-91
2023/05/08 12:00:45;;;;;;;9.93;8.18;;;;;;;19.01;100.00;101305.69;6261775;28;20104;-91
2023/05/08 12:03:47;;;;;;;9.30;7.82;;;;;;;19.18;100.00;101308.34;6260677;28;20385;-90
2023/05/08 12:06:56;;;;;;;9.95;8.63;;;;;;;19.29;100.00;101306.28;6261904;28;20036;-91
2023/05/08 12:10:02;;;;;;;9.20;8.10;;;;;;;19.48;100.00;101310.44;6248861;28;20048;-90
2023/05/08 12:13:34;;;;;;;10.25;8.30;;;;;;;19.66;100.00;101317.38;6248033;28;20148;-91
2023/05/08 12:16:37;;;;;;;8.80;7.90;;;;;;;19.84;100.00;101314.63;6250188;28;20372;-91
2023/05/08 12:19:39;;;;;;;9.95;8.05;;;;;;;19.91;100.00;101310.38;6260342;28;20037;-91
2023/05/08 12:22:48;;;;;;;10.77;8.07;;;;;;;20.04;100.00;101320.41;6250530;28;20041;-91
2023/05/08 12:26:03;;;;;;;9.80;7.68;;;;;;;20.14;100.00;101305.28;6258142;28;20048;-91
2023/05/08 12:29:06;;;;;;;9.48;7.35;;;;;;;20.12;100.00;101308.09;6251165;28;20048;-90
2023/05/08 12:32:08;;;;;;;12.75;8.18;;;;;;;20.26;100.00;101314.47;6253995;28;20037;-90
2023/05/08 12:35:12;;;;;;;9.25;7.65;;;;;;;20.40;100.00;101316.44;6255351;28;20038;-91
2023/05/08 12:38:15;;;;;;;8.95;6.93;;;;;;;20.69;100.00;101311.66;6249140;28;20102;-90
2023/05/08 12:41:23;;;;;;;9.20;7.55;;;;;;;20.90;100.00;101313.75;6265406;28;20512;-90
2023/05/08 12:44:25;;;;;;;10.75;7.30;;;;;;;21.10;100.00;101317.63;6259072;28;20239;-91
2023/05/08 12:47:27;;;;;;;8.30;7.20;;;;;;;21.35;100.00;101314.88;6257795;28;20045;-91
2023/05/08 12:50:34;;;;;;;8.48;6.80;;;;;;;21.61;100.00;101320.66;6252129;28;20044;-91
2023/05/08 12:53:36;;;;;;;8.10;7.32;;;;;;;21.85;100.00;101316.22;6219785;28;20496;-91
2023/05/08 12:56:44;;;;;;;9.63;6.88;;;;;;;21.97;100.00;101316.66;6259924;28;20073;-90
2023/05/08 12:59:46;;;;;;;7.50;6.80;;;;;;;22.18;100.00;101315.97;6253300;28;20515;-91
2023/05/08 13:02:55;;;;;;;7.97;6.78;;;;;;;22.37;100.00;101310.22;6256517;28;20049;-92
2023/05/08 13:05:57;;;;;;;7.80;7.00;;;;;;;22.39;100.00;101310.88;6244375;28;20044;-91
2023/05/08 13:08:59;;;;;;;8.63;7.18;;;;;;;22.46;100.00;101300.41;6247051;28;20060;-91
2023/05/08 13:12:01;;;;;;;8.32;7.00;;;;;;;22.61;100.00;101295.97;6256156;28;20041;-91
2023/05/08 13:15:03;;;;;;;8.40;6.55;;;;;;;22.66;100.00;101298.03;6259155;28;20069;-91
2023/05/08 13:18:06;;;;;;;7.43;6.50;;;;;;;22.71;100.00;101295.72;6258983;28;20152;-91
2023/05/08 13:21:08;;;;;;;7.20;6.50;;;;;;;22.76;98.64;101293.34;6247037;28;20174;-92
2023/05/08 13:24:10;;;;;;;6.47;5.75;;;;;;;22.84;99.92;101287.94;6247621;28;20045;-92
2023/05/08 13:27:12;;;;;;;9.75;6.03;;;;;;;22.78;91.67;101284.22;6260855;28;20041;-92
2023/05/08 13:30:14;;;;;;;5.70;5.10;;;;;;;22.87;100.00;101274.38;6250224;28;20037;-92
2023/05/08 13:33:16;;;;;;;6.57;5.88;;;;;;;23.13;98.51;101267.81;6254432;28;20559;-92
2023/05/08 13:36:19;;;;;;;6.97;5.90;;;;;;;23.09;90.65;101267.38;6249390;28;20041;-92
2023/05/08 13:39:21;;;;;;;7.35;6.38;;;;;;;22.96;92.03;101260.06;6249969;28;20208;-92
2023/05/08 13:42:23;;;;;;;7.13;6.43;;;;;;;23.08;95.12;101252.53;6256364;28;20057;-92
2023/05/08 13:45:25;;;;;;;6.82;5.88;;;;;;;23.14;96.94;101250.97;6265347;28;20041;-92
2023/05/08 13:48:26;;;;;;;8.05;5.63;;;;;;;23.29;95.47;101250.91;6256188;28;20571;-93
2023/05/08 13:51:28;;;;;;;8.95;6.20;;;;;;;23.41;94.14;101249.44;6263109;28;20077;-92
2023/05/08 13:54:30;;;;;;;8.05;5.75;;;;;;;23.59;100.00;101254.28;6258802;28;20627;-92
2023/05/08 13:57:32;;;;;;;21.52;9.60;;;;;;;23.75;100.00;101243.47;6250567;28;20480;-92
2023/05/08 14:00:34;;;;;;;7.38;6.25;;;;;;;23.84;91.37;101244.16;6262566;28;20042;-92
2023/05/08 14:03:36;;;;;;;6.70;5.95;;;;;;;23.75;87.18;101246.13;6254198;28;20471;-92
2023/05/08 14:06:39;;;;;;;5.63;5.13;;;;;;;23.82;92.19;101240.88;6257780;28;20045;-90
2023/05/08 14:09:41;;;;;;;5.97;5.25;;;;;;;23.94;94.67;101239.34;6249424;28;20457;-91
2023/05/08 14:12:43;;;;;;;6.22;5.07;;;;;;;24.10;92.16;101232.13;6265945;28;20120;-91